createdAt,value
2023-01-15T00:01:31.373Z,19.60
2023-01-15T00:03:40.020Z,19.70
2023-01-15T00:05:47.196Z,19.60
2023-01-15T00:07:54.900Z,19.70
2023-01-15T00:10:02.373Z,19.70
2023-01-15T00:12:09.503Z,19.70
2023-01-15T00:14:16.992Z,19.70
2023-01-15T00:16:25.858Z,19.70
2023-01-15T00:18:33.141Z,19.70
2023-01-15T00:20:41.705Z,19.70
2023-01-15T00:22:48.992Z,19.80
2023-01-15T00:25:12.559Z,19.80
2023-01-15T00:27:36.379Z,19.80
2023-01-15T00:29:43.200Z,19.90
2023-01-15T00:31:57.765Z,19.90
2023-01-15T00:34:04.833Z,19.90
2023-01-15T00:36:13.860Z,19.90
2023-01-15T00:38:20.687Z,19.90
2023-01-15T00:40:27.930Z,19.90
2023-01-15T00:42:34.843Z,19.90
2023-01-15T00:44:43.506Z,20.00
2023-01-15T00:46:51.005Z,20.10
2023-01-15T00:49:00.940Z,20.10
2023-01-15T00:51:09.604Z,20.20
2023-01-15T00:53:18.530Z,20.30
2023-01-15T00:55:25.464Z,20.30
2023-01-15T00:57:32.790Z,20.40
2023-01-15T00:59:39.704Z,20.40
2023-01-15T01:01:46.998Z,20.50
2023-01-15T01:03:54.030Z,20.60
2023-01-15T01:06:05.258Z,20.60
2023-01-15T01:08:12.078Z,20.70
2023-01-15T01:10:21.307Z,20.80
2023-01-15T01:12:28.285Z,20.80
2023-01-15T01:14:35.773Z,20.90
2023-01-15T01:16:44.183Z,21.00
2023-01-15T01:18:51.364Z,21.10
2023-01-15T01:20:58.442Z,21.10
2023-01-15T01:23:05.679Z,21.20
2023-01-15T01:25:13.888Z,21.30
2023-01-15T01:27:22.808Z,21.40
2023-01-15T01:29:29.677Z,21.50
2023-01-15T01:31:37.608Z,21.60
2023-01-15T01:33:44.709Z,21.70
2023-01-15T01:35:52.816Z,21.80
2023-01-15T01:37:59.637Z,21.80
2023-01-15T01:40:07.072Z,22.00
2023-01-15T01:42:16.527Z,22.10
2023-01-15T01:44:59.170Z,22.20
2023-01-15T01:47:11.009Z,22.30
2023-01-15T01:49:18.754Z,22.40
2023-01-15T01:51:28.291Z,22.50
2023-01-15T01:53:36.497Z,22.70
2023-01-15T01:55:43.832Z,22.80
2023-01-15T01:57:53.578Z,23.00
2023-01-15T02:00:02.261Z,23.00
2023-01-15T02:02:23.708Z,23.20
2023-01-15T02:04:32.065Z,23.30
2023-01-15T02:06:41.089Z,23.40
2023-01-15T02:08:48.732Z,23.50
2023-01-15T02:10:59.498Z,23.60
2023-01-15T02:13:17.636Z,23.80
2023-01-15T02:15:32.344Z,23.90
2023-01-15T02:17:48.384Z,24.00
2023-01-15T02:20:12.001Z,24.10
2023-01-15T02:22:30.547Z,24.20
2023-01-15T02:24:46.946Z,24.30
2023-01-15T02:27:18.348Z,24.40
2023-01-15T02:29:32.852Z,24.50
2023-01-15T02:31:41.943Z,24.60
2023-01-15T02:33:54.943Z,24.70
2023-01-15T02:36:07.398Z,24.70
2023-01-15T02:38:18.982Z,24.80
2023-01-15T02:40:31.337Z,25.00
2023-01-15T02:42:42.717Z,25.10
2023-01-15T02:44:52.565Z,25.20
2023-01-15T02:47:01.590Z,25.30
2023-01-15T02:49:11.940Z,25.40
2023-01-15T02:51:26.649Z,25.50
2023-01-15T02:53:36.082Z,25.50
2023-01-15T02:55:49.108Z,25.60
2023-01-15T02:58:03.868Z,25.70
2023-01-15T03:00:17.338Z,25.80
2023-01-15T03:02:27.946Z,25.90
2023-01-15T03:04:39.282Z,25.90
2023-01-15T03:06:52.709Z,26.00
2023-01-15T03:09:02.661Z,26.10
2023-01-15T03:11:14.406Z,26.30
2023-01-15T03:13:32.944Z,26.30
2023-01-15T03:16:07.572Z,26.40
2023-01-15T03:18:18.286Z,26.50
2023-01-15T03:20:29.823Z,26.60
2023-01-15T03:22:39.759Z,26.70
2023-01-15T03:24:50.343Z,26.70
2023-01-15T03:26:59.090Z,26.80
2023-01-15T03:29:11.241Z,26.90
2023-01-15T03:31:19.547Z,27.00
2023-01-15T03:33:27.446Z,27.10
2023-01-15T03:35:50.348Z,27.10
2023-01-15T03:38:25.363Z,27.20
2023-01-15T03:40:35.426Z,27.40
2023-01-15T03:42:50.545Z,27.40
2023-01-15T03:45:06.075Z,27.50
2023-01-15T03:47:35.277Z,27.60
2023-01-15T03:49:50.273Z,27.60
2023-01-15T03:52:23.270Z,27.70
2023-01-15T03:54:43.819Z,27.80
2023-01-15T03:56:57.937Z,27.80
2023-01-15T03:59:12.938Z,27.90
2023-01-15T04:01:40.205Z,27.90
2023-01-15T04:03:49.561Z,28.10
2023-01-15T04:06:00.327Z,28.10
2023-01-15T04:08:09.257Z,28.10
2023-01-15T04:10:16.694Z,28.20
2023-01-15T04:12:24.792Z,28.40
2023-01-15T04:14:34.182Z,28.40
2023-01-15T04:16:48.560Z,28.40
2023-01-15T04:18:55.501Z,28.50
2023-01-15T04:21:05.370Z,28.60
2023-01-15T04:23:14.626Z,28.60
2023-01-15T04:25:21.903Z,28.70
2023-01-15T04:27:29.586Z,28.80
2023-01-15T04:29:37.619Z,28.90
2023-01-15T04:31:44.517Z,28.90
2023-01-15T04:33:53.230Z,29.00
2023-01-15T04:36:03.038Z,29.00
2023-01-15T04:38:10.493Z,29.10
2023-01-15T04:40:37.888Z,29.20
2023-01-15T04:43:01.960Z,29.20
2023-01-15T04:45:09.718Z,29.30
2023-01-15T04:47:16.888Z,29.40
2023-01-15T04:49:25.862Z,29.50
2023-01-15T04:51:33.042Z,29.50
2023-01-15T04:53:39.970Z,29.60
2023-01-15T04:55:47.354Z,29.70
2023-01-15T04:57:54.428Z,29.70
2023-01-15T05:00:01.641Z,29.70
2023-01-15T05:02:08.736Z,29.80
2023-01-15T05:04:16.147Z,29.70
2023-01-15T05:06:24.902Z,29.80
2023-01-15T05:08:32.290Z,29.80
2023-01-15T05:10:39.164Z,29.80
2023-01-15T05:12:46.449Z,29.90
2023-01-15T05:14:53.229Z,29.90
2023-01-15T05:17:00.657Z,30.00
2023-01-15T05:19:10.063Z,29.90
2023-01-15T05:21:23.318Z,30.00
2023-01-15T05:23:31.975Z,30.10
2023-01-15T05:25:40.806Z,30.10
2023-01-15T05:27:48.134Z,30.10
2023-01-15T05:29:54.959Z,30.20
2023-01-15T05:32:02.159Z,30.20
2023-01-15T05:34:09.066Z,30.30
2023-01-15T05:36:17.936Z,30.30
2023-01-15T05:38:24.795Z,30.40
2023-01-15T05:40:33.682Z,30.40
2023-01-15T05:42:40.608Z,30.50
2023-01-15T05:44:47.792Z,30.50
2023-01-15T05:46:56.256Z,30.50
2023-01-15T05:49:04.559Z,30.60
2023-01-15T05:51:11.540Z,30.60
2023-01-15T05:53:18.770Z,30.60
2023-01-15T05:55:25.643Z,30.50
2023-01-15T05:57:35.386Z,30.60
2023-01-15T05:59:42.674Z,30.70
2023-01-15T06:01:50.115Z,30.70
2023-01-15T06:03:57.200Z,30.80
2023-01-15T06:06:04.415Z,30.80
2023-01-15T06:08:11.398Z,30.80
2023-01-15T06:10:19.911Z,30.90
2023-01-15T06:12:26.936Z,30.90
2023-01-15T06:14:35.814Z,31.00
2023-01-15T06:16:43.127Z,31.00
2023-01-15T06:18:50.378Z,31.00
2023-01-15T06:20:57.970Z,31.00
2023-01-15T06:23:05.154Z,31.10
2023-01-15T06:25:12.432Z,31.20
2023-01-15T06:27:19.718Z,31.30
2023-01-15T06:29:26.955Z,31.40
2023-01-15T06:31:35.600Z,31.40
2023-01-15T06:33:42.603Z,31.40
2023-01-15T06:35:51.669Z,31.30
2023-01-15T06:37:58.957Z,31.30
2023-01-15T06:40:05.878Z,31.30
2023-01-15T06:42:30.214Z,31.30
2023-01-15T06:44:53.062Z,31.30
2023-01-15T06:47:18.626Z,31.30
2023-01-15T06:49:25.504Z,31.30
2023-01-15T06:51:32.628Z,31.40
2023-01-15T06:53:39.355Z,31.40
2023-01-15T06:55:47.096Z,31.40
2023-01-15T06:57:53.966Z,31.40
2023-01-15T07:00:01.042Z,31.40
2023-01-15T07:02:09.971Z,31.40
2023-01-15T07:04:17.921Z,31.40
2023-01-15T07:06:26.430Z,31.50
2023-01-15T07:08:33.817Z,31.50
2023-01-15T07:10:40.848Z,31.50
2023-01-15T07:12:48.079Z,31.60
2023-01-15T07:14:55.210Z,31.60
2023-01-15T07:17:02.442Z,31.50
2023-01-15T07:19:11.884Z,31.50
2023-01-15T07:21:19.150Z,31.50
2023-01-15T07:23:26.637Z,31.50
2023-01-15T07:25:33.616Z,31.60
2023-01-15T07:27:40.913Z,31.60
2023-01-15T07:29:49.116Z,31.60
2023-01-15T07:31:56.543Z,31.50
2023-01-15T07:34:03.692Z,31.50
2023-01-15T07:36:13.128Z,31.50
2023-01-15T07:38:19.993Z,31.50
2023-01-15T07:40:27.265Z,31.50
2023-01-15T07:42:50.846Z,31.60
2023-01-15T07:45:14.514Z,31.60
2023-01-15T07:47:40.621Z,31.60
2023-01-15T07:49:50.954Z,31.60
2023-01-15T07:51:59.662Z,31.60
2023-01-15T07:54:06.996Z,31.60
2023-01-15T07:56:14.180Z,31.60
2023-01-15T07:58:21.209Z,31.60
2023-01-15T08:00:28.742Z,31.60
2023-01-15T08:02:36.029Z,31.60
2023-01-15T08:04:43.311Z,31.60
2023-01-15T08:06:50.547Z,31.60
2023-01-15T08:08:59.264Z,31.60
2023-01-15T08:11:23.343Z,31.60
2023-01-15T08:13:47.012Z,31.60
2023-01-15T08:15:54.402Z,31.60
2023-01-15T08:18:01.846Z,31.50
2023-01-15T08:20:11.488Z,31.50
2023-01-15T08:22:18.501Z,31.50
2023-01-15T08:24:27.422Z,31.50
2023-01-15T08:26:34.333Z,31.60
2023-01-15T08:28:41.485Z,31.50
2023-01-15T08:30:48.355Z,31.50
2023-01-15T08:32:55.512Z,31.40
2023-01-15T08:35:02.180Z,31.40
2023-01-15T08:37:09.340Z,31.30
2023-01-15T08:39:16.167Z,31.40
2023-01-15T08:41:25.180Z,31.30
2023-01-15T08:43:33.743Z,31.30
2023-01-15T08:45:40.918Z,31.20
2023-01-15T08:47:47.752Z,31.20
2023-01-15T08:49:54.989Z,31.30
2023-01-15T08:52:02.002Z,31.20
2023-01-15T08:54:09.092Z,31.20
2023-01-15T08:56:17.095Z,31.20
2023-01-15T08:58:26.116Z,31.20
2023-01-15T09:00:33.404Z,31.20
2023-01-15T09:02:40.535Z,31.20
2023-01-15T09:04:47.592Z,31.10
2023-01-15T09:06:55.615Z,31.10
2023-01-15T09:09:03.416Z,31.10
2023-01-15T09:11:13.662Z,31.10
2023-01-15T09:13:20.689Z,31.00
2023-01-15T09:15:29.738Z,31.00
2023-01-15T09:17:41.490Z,30.90
2023-01-15T09:19:48.838Z,30.80
2023-01-15T09:21:56.031Z,30.80
2023-01-15T09:24:03.898Z,30.70
2023-01-15T09:26:24.713Z,30.70
2023-01-15T09:28:32.503Z,30.70
2023-01-15T09:30:41.354Z,30.70
2023-01-15T09:32:48.319Z,30.70
2023-01-15T09:34:55.554Z,30.70
2023-01-15T09:37:02.374Z,30.60
2023-01-15T09:39:09.551Z,30.60
2023-01-15T09:41:31.376Z,30.50
2023-01-15T09:43:51.401Z,30.50
2023-01-15T09:46:04.315Z,30.50
2023-01-15T09:48:31.994Z,30.40
2023-01-15T09:50:51.514Z,30.40
2023-01-15T09:53:13.588Z,30.40
2023-01-15T09:55:23.535Z,30.40
2023-01-15T09:57:31.637Z,30.30
2023-01-15T09:59:41.329Z,30.30
2023-01-15T10:01:51.822Z,30.30
2023-01-15T10:04:04.165Z,30.20
2023-01-15T10:06:18.424Z,30.20
2023-01-15T10:08:28.639Z,30.10
2023-01-15T10:10:43.793Z,30.10
2023-01-15T10:12:51.744Z,30.10
2023-01-15T10:15:04.169Z,30.00
2023-01-15T10:17:28.769Z,30.00
2023-01-15T10:19:44.384Z,29.90
2023-01-15T10:21:57.506Z,29.90
2023-01-15T10:24:11.751Z,29.80
2023-01-15T10:26:31.311Z,29.70
2023-01-15T10:29:09.222Z,29.70
2023-01-15T10:31:22.211Z,29.60
2023-01-15T10:33:49.187Z,29.50
2023-01-15T10:36:01.644Z,29.40
2023-01-15T10:38:17.227Z,29.40
2023-01-15T10:40:40.788Z,29.30
2023-01-15T10:42:57.493Z,29.20
2023-01-15T10:45:13.035Z,29.10
2023-01-15T10:47:23.357Z,29.00
2023-01-15T10:49:34.089Z,28.90
2023-01-15T10:51:45.379Z,28.80
2023-01-15T10:53:58.282Z,28.60
2023-01-15T10:56:10.740Z,28.50
2023-01-15T10:58:25.075Z,28.40
2023-01-15T11:00:35.195Z,28.30
2023-01-15T11:02:45.732Z,28.30
2023-01-15T11:04:55.230Z,28.30
2023-01-15T11:07:04.361Z,28.20
2023-01-15T11:09:19.385Z,28.10
2023-01-15T11:11:57.811Z,28.00
2023-01-15T11:14:21.612Z,27.90
2023-01-15T11:16:46.969Z,27.80
2023-01-15T11:19:11.508Z,27.60
2023-01-15T11:21:22.793Z,27.50
2023-01-15T11:23:29.954Z,27.40
2023-01-15T11:25:37.360Z,27.20
2023-01-15T11:27:44.794Z,27.00
2023-01-15T11:29:56.993Z,26.90
2023-01-15T11:32:04.274Z,26.80
2023-01-15T11:34:22.384Z,26.70
2023-01-15T11:36:32.971Z,26.70
2023-01-15T11:38:48.713Z,26.60
2023-01-15T11:40:57.875Z,26.60
2023-01-15T11:43:21.654Z,26.50
2023-01-15T11:45:45.273Z,26.50
2023-01-15T11:48:12.269Z,26.40
2023-01-15T11:50:40.041Z,26.30
2023-01-15T11:52:52.182Z,26.30
2023-01-15T11:54:59.632Z,26.30
2023-01-15T11:57:07.274Z,26.30
2023-01-15T11:59:16.646Z,26.30
2023-01-15T12:01:29.640Z,26.30
2023-01-15T12:03:39.213Z,26.30
2023-01-15T12:05:50.937Z,26.20
2023-01-15T12:08:02.116Z,26.20
2023-01-15T12:10:42.169Z,26.10
2023-01-15T12:13:04.536Z,26.00
2023-01-15T12:15:19.281Z,25.90
2023-01-15T12:17:40.321Z,25.70
2023-01-15T12:19:55.730Z,25.70
2023-01-15T12:22:25.291Z,25.60
2023-01-15T12:24:57.813Z,25.60
2023-01-15T12:27:19.756Z,25.60
2023-01-15T12:29:30.979Z,25.50
2023-01-15T12:31:44.564Z,25.40
2023-01-15T12:33:56.661Z,25.30
2023-01-15T12:36:10.141Z,25.20
2023-01-15T12:38:23.265Z,25.20
2023-01-15T12:40:44.629Z,25.20
2023-01-15T12:43:11.872Z,25.10
2023-01-15T12:45:23.360Z,25.10
2023-01-15T12:47:35.661Z,25.00
2023-01-15T12:49:47.962Z,24.90
2023-01-15T12:52:00.877Z,24.90
2023-01-15T12:54:14.355Z,24.90
2023-01-15T12:56:28.755Z,24.80
2023-01-15T12:58:43.412Z,24.60
2023-01-15T13:00:51.124Z,24.50
2023-01-15T13:03:08.685Z,24.50
2023-01-15T13:05:22.006Z,24.40
2023-01-15T13:07:33.643Z,24.40
2023-01-15T13:09:46.867Z,24.40
2023-01-15T13:11:56.097Z,24.40
2023-01-15T13:14:02.975Z,24.40
2023-01-15T13:16:18.425Z,24.30
2023-01-15T13:18:35.238Z,24.30
2023-01-15T13:20:52.269Z,24.20
2023-01-15T13:23:10.915Z,24.20
2023-01-15T13:25:41.806Z,24.10
2023-01-15T13:28:00.405Z,24.10
2023-01-15T13:30:24.946Z,24.10
2023-01-15T13:32:36.019Z,24.00
2023-01-15T13:34:48.316Z,23.90
2023-01-15T13:36:59.339Z,23.90
2023-01-15T13:39:08.414Z,23.90
2023-01-15T13:41:43.091Z,23.80
2023-01-15T13:43:56.314Z,23.80
2023-01-15T13:46:04.430Z,23.80
2023-01-15T13:48:16.057Z,23.80
2023-01-15T13:50:30.926Z,23.80
2023-01-15T13:52:40.040Z,23.80
2023-01-15T13:54:47.223Z,23.70
2023-01-15T13:56:54.564Z,23.70
2023-01-15T13:59:04.557Z,23.70
2023-01-15T14:01:27.133Z,23.60
2023-01-15T14:03:36.023Z,23.60
2023-01-15T14:05:43.871Z,23.60
2023-01-15T14:07:50.848Z,23.50
2023-01-15T14:09:57.975Z,23.50
2023-01-15T14:12:15.457Z,23.50
2023-01-15T14:14:49.458Z,23.50
2023-01-15T14:17:05.143Z,23.50
2023-01-15T14:19:30.650Z,23.40
2023-01-15T14:21:47.406Z,23.40
2023-01-15T14:24:20.446Z,23.40
2023-01-15T14:26:39.352Z,23.30
2023-01-15T14:29:05.277Z,23.20
2023-01-15T14:31:31.775Z,23.20
2023-01-15T14:33:49.485Z,23.20
2023-01-15T14:35:57.392Z,23.20
2023-01-15T14:38:09.070Z,23.20
2023-01-15T14:40:20.918Z,23.20
2023-01-15T14:42:48.426Z,23.20
2023-01-15T14:45:05.031Z,23.10
2023-01-15T14:47:27.310Z,23.00
2023-01-15T14:49:46.471Z,22.90
2023-01-15T14:51:54.430Z,22.90
2023-01-15T14:54:05.546Z,22.90
2023-01-15T14:56:21.385Z,22.90
2023-01-15T14:58:41.480Z,22.90
2023-01-15T15:00:55.779Z,22.90
2023-01-15T15:03:06.647Z,22.90
2023-01-15T15:05:18.726Z,22.90
2023-01-15T15:07:27.905Z,22.90
2023-01-15T15:09:39.707Z,22.90
2023-01-15T15:12:07.670Z,22.90
2023-01-15T15:14:15.969Z,22.90
2023-01-15T15:16:28.492Z,22.90
2023-01-15T15:18:42.527Z,22.90
2023-01-15T15:20:54.771Z,22.80
2023-01-15T15:23:07.952Z,22.80
2023-01-15T15:25:20.807Z,22.70
2023-01-15T15:27:28.654Z,22.70
2023-01-15T15:29:35.886Z,22.60
2023-01-15T15:31:46.243Z,22.60
2023-01-15T15:33:56.702Z,22.70
2023-01-15T15:36:04.604Z,22.60
2023-01-15T15:38:18.705Z,22.60
2023-01-15T15:40:31.982Z,22.60
2023-01-15T15:43:06.951Z,22.50
2023-01-15T15:45:38.608Z,22.50
2023-01-15T15:48:02.685Z,22.50
2023-01-15T15:50:22.169Z,22.50
2023-01-15T15:52:30.619Z,22.40
2023-01-15T15:54:37.645Z,22.40
2023-01-15T15:56:54.910Z,22.30
2023-01-15T15:59:02.093Z,22.30
2023-01-15T16:01:13.681Z,22.30
2023-01-15T16:03:24.702Z,22.30
2023-01-15T16:05:33.985Z,22.30
2023-01-15T16:07:41.008Z,22.30
2023-01-15T16:09:54.706Z,22.20
2023-01-15T16:12:08.328Z,22.10
2023-01-15T16:14:16.955Z,22.20
2023-01-15T16:16:29.050Z,22.20
2023-01-15T16:18:35.965Z,22.20
2023-01-15T16:20:44.936Z,22.10
2023-01-15T16:22:56.969Z,22.00
2023-01-15T16:25:04.320Z,21.90
2023-01-15T16:27:20.153Z,21.90
2023-01-15T16:29:29.795Z,21.90
2023-01-15T16:31:40.811Z,21.80
2023-01-15T16:33:48.003Z,21.80
2023-01-15T16:36:05.621Z,21.90
2023-01-15T16:38:23.158Z,21.90
2023-01-15T16:40:33.042Z,22.00
2023-01-15T16:42:44.063Z,22.00
2023-01-15T16:44:56.317Z,22.00
2023-01-15T16:47:03.647Z,22.00
2023-01-15T16:49:31.886Z,21.90
2023-01-15T16:51:43.970Z,21.90
2023-01-15T16:53:51.199Z,21.80
2023-01-15T16:55:58.695Z,21.70
2023-01-15T16:58:20.195Z,21.60
2023-01-15T17:00:34.155Z,21.60
2023-01-15T17:02:49.369Z,21.60
2023-01-15T17:04:56.342Z,21.60
2023-01-15T17:07:07.428Z,21.60
2023-01-15T17:09:18.286Z,21.60
2023-01-15T17:11:28.029Z,21.60
2023-01-15T17:13:38.047Z,21.60
2023-01-15T17:15:45.674Z,21.60
2023-01-15T17:17:53.422Z,21.60
2023-01-15T17:20:00.811Z,21.50
2023-01-15T17:22:14.283Z,21.40
2023-01-15T17:24:21.307Z,21.30
2023-01-15T17:26:29.804Z,21.20
2023-01-15T17:28:37.060Z,21.20
2023-01-15T17:30:43.929Z,21.10
2023-01-15T17:32:51.416Z,21.10
2023-01-15T17:34:58.647Z,21.10
2023-01-15T17:37:07.521Z,21.20
2023-01-15T17:39:15.367Z,21.10
2023-01-15T17:41:24.395Z,21.10
2023-01-15T17:43:31.325Z,21.10
2023-01-15T17:45:38.960Z,21.10
2023-01-15T17:47:45.835Z,21.10
2023-01-15T17:49:53.118Z,21.20
2023-01-15T17:52:00.509Z,21.20
2023-01-15T17:54:09.734Z,21.20
2023-01-15T17:56:33.159Z,21.20
2023-01-15T17:58:57.079Z,21.20
2023-01-15T18:01:21.780Z,21.20
2023-01-15T18:03:45.942Z,21.20
2023-01-15T18:05:54.608Z,21.30
2023-01-15T18:08:03.582Z,21.20
2023-01-15T18:10:19.684Z,21.10
2023-01-15T18:12:27.111Z,21.00
2023-01-15T18:14:35.425Z,20.90
2023-01-15T18:16:42.654Z,20.90
2023-01-15T18:18:49.641Z,20.80
2023-01-15T18:20:56.865Z,20.90
2023-01-15T18:23:03.837Z,20.90
2023-01-15T18:25:13.894Z,20.90
2023-01-15T18:27:21.019Z,20.80
2023-01-15T18:29:28.200Z,20.80
2023-01-15T18:31:35.447Z,20.70
2023-01-15T18:33:42.671Z,20.70
2023-01-15T18:35:50.209Z,20.70
2023-01-15T18:37:57.438Z,20.80
2023-01-15T18:40:04.417Z,20.80
2023-01-15T18:42:42.219Z,20.80
2023-01-15T18:45:05.476Z,20.70
2023-01-15T18:47:14.751Z,20.60
2023-01-15T18:49:21.963Z,20.60
2023-01-15T18:51:29.476Z,20.60
2023-01-15T18:53:36.414Z,20.60
2023-01-15T18:55:44.816Z,20.60
2023-01-15T18:57:53.571Z,20.60
2023-01-15T19:00:00.741Z,20.60
2023-01-15T19:02:08.113Z,20.60
2023-01-15T19:04:15.429Z,20.60
2023-01-15T19:06:22.367Z,20.60
2023-01-15T19:08:30.050Z,20.70
2023-01-15T19:10:37.034Z,20.70
2023-01-15T19:12:44.770Z,20.70
2023-01-15T19:15:10.096Z,20.70
2023-01-15T19:17:34.207Z,20.80
2023-01-15T19:19:43.305Z,20.70
2023-01-15T19:22:10.585Z,20.70
2023-01-15T19:24:17.565Z,20.60
2023-01-15T19:26:24.847Z,20.60
2023-01-15T19:28:34.333Z,20.60
2023-01-15T19:30:43.511Z,20.50
2023-01-15T19:32:50.556Z,20.50
2023-01-15T19:34:57.724Z,20.50
2023-01-15T19:37:04.696Z,20.50
2023-01-15T19:39:11.776Z,20.50
2023-01-15T19:41:35.292Z,20.50
2023-01-15T19:43:59.214Z,20.50
2023-01-15T19:46:30.068Z,20.50
2023-01-15T19:48:54.254Z,20.50
2023-01-15T19:51:01.259Z,20.50
2023-01-15T19:53:08.953Z,20.40
2023-01-15T19:55:16.501Z,20.50
2023-01-15T19:57:23.684Z,20.40
2023-01-15T19:59:30.610Z,20.40
2023-01-15T20:01:39.577Z,20.40
2023-01-15T20:03:47.318Z,20.40
2023-01-15T20:05:54.806Z,20.40
2023-01-15T20:08:02.093Z,20.50
2023-01-15T20:10:11.840Z,20.50
2023-01-15T20:12:35.168Z,20.50
2023-01-15T20:14:42.580Z,20.50
2023-01-15T20:16:51.157Z,20.40
2023-01-15T20:18:58.428Z,20.30
2023-01-15T20:21:05.404Z,20.20
2023-01-15T20:23:12.795Z,20.20
2023-01-15T20:25:19.728Z,20.10
2023-01-15T20:27:27.053Z,20.00
2023-01-15T20:29:33.879Z,20.00
2023-01-15T20:31:41.103Z,19.90
2023-01-15T20:33:50.401Z,19.90
2023-01-15T20:35:57.880Z,19.90
2023-01-15T20:38:04.906Z,19.90
2023-01-15T20:40:13.264Z,19.90
2023-01-15T20:42:37.293Z,20.00
2023-01-15T20:44:56.499Z,20.00
2023-01-15T20:47:23.709Z,20.00
2023-01-15T20:49:33.347Z,19.90
2023-01-15T20:51:40.579Z,19.90
2023-01-15T20:53:47.608Z,19.90
2023-01-15T20:55:57.539Z,19.90
2023-01-15T20:58:04.920Z,19.90
2023-01-15T21:00:16.523Z,19.80
2023-01-15T21:02:23.346Z,19.90
2023-01-15T21:04:32.599Z,19.80
2023-01-15T21:06:39.556Z,19.80
2023-01-15T21:08:47.463Z,19.80
2023-01-15T21:10:56.184Z,19.70
2023-01-15T21:13:03.351Z,19.70
2023-01-15T21:15:11.199Z,19.70
2023-01-15T21:17:18.329Z,19.70
2023-01-15T21:19:25.971Z,19.70
2023-01-15T21:21:34.946Z,19.70
2023-01-15T21:23:41.824Z,19.70
2023-01-15T21:25:49.164Z,19.70
2023-01-15T21:27:56.027Z,19.60
2023-01-15T21:30:03.262Z,19.60
2023-01-15T21:32:10.445Z,19.60
2023-01-15T21:34:17.623Z,19.50
2023-01-15T21:36:25.477Z,19.50
2023-01-15T21:38:34.667Z,19.40
2023-01-15T21:40:42.250Z,19.40
2023-01-15T21:43:06.319Z,19.40
2023-01-15T21:45:13.910Z,19.40
2023-01-15T21:47:22.375Z,19.50
2023-01-15T21:49:29.604Z,19.50
2023-01-15T21:51:36.637Z,19.60
2023-01-15T21:53:45.146Z,19.60
2023-01-15T21:55:55.655Z,19.60
2023-01-15T21:58:02.938Z,19.50
2023-01-15T22:00:11.503Z,19.50
2023-01-15T22:02:22.659Z,19.50
2023-01-15T22:04:30.832Z,19.40
2023-01-15T22:06:38.086Z,19.40
2023-01-15T22:08:47.091Z,19.30
2023-01-15T22:10:54.187Z,19.30
2023-01-15T22:13:01.419Z,19.30
2023-01-15T22:15:08.944Z,19.30
2023-01-15T22:17:16.125Z,19.30
2023-01-15T22:19:23.770Z,19.30
2023-01-15T22:21:31.101Z,19.30
2023-01-15T22:23:38.234Z,19.40
2023-01-15T22:25:47.308Z,19.40
2023-01-15T22:27:55.052Z,19.40
2023-01-15T22:30:02.390Z,19.40
2023-01-15T22:32:10.407Z,19.40
2023-01-15T22:34:17.420Z,19.40
2023-01-15T22:36:25.112Z,19.40
2023-01-15T22:38:33.213Z,19.40
2023-01-15T22:40:40.548Z,19.40
2023-01-15T22:42:49.637Z,19.40
2023-01-15T22:44:56.860Z,19.40
2023-01-15T22:47:04.985Z,19.40
2023-01-15T22:49:11.886Z,19.40
2023-01-15T22:51:18.963Z,19.40
2023-01-15T22:53:25.891Z,19.40
2023-01-15T22:55:33.287Z,19.40
2023-01-15T22:57:40.203Z,19.40
2023-01-15T22:59:51.286Z,19.40
2023-01-15T23:01:58.255Z,19.40
2023-01-15T23:04:05.605Z,19.40
2023-01-15T23:06:14.152Z,19.40
2023-01-15T23:08:21.390Z,19.40
2023-01-15T23:10:28.467Z,19.30
2023-01-15T23:12:36.669Z,19.30
2023-01-15T23:14:43.595Z,19.20
2023-01-15T23:16:52.625Z,19.20
2023-01-15T23:18:59.701Z,19.20
2023-01-15T23:21:07.811Z,19.10
2023-01-15T23:23:14.782Z,19.10
2023-01-15T23:25:22.016Z,19.10
2023-01-15T23:27:28.936Z,19.10
2023-01-15T23:29:36.375Z,19.10
2023-01-15T23:31:43.365Z,19.20
2023-01-15T23:33:52.335Z,19.20
2023-01-15T23:36:00.275Z,19.30
2023-01-15T23:38:07.611Z,19.30
2023-01-15T23:40:15.407Z,19.30
2023-01-15T23:42:39.210Z,19.30
2023-01-15T23:45:02.589Z,19.20
2023-01-15T23:47:10.538Z,19.20
2023-01-15T23:49:20.636Z,19.10
2023-01-15T23:51:28.182Z,19.00
2023-01-15T23:53:35.308Z,19.00
2023-01-15T23:55:42.604Z,18.90
2023-01-15T23:57:49.418Z,19.00
2023-01-15T23:59:56.596Z,19.00
